Time,TemperatureF,DewpointF,PressureIn,WindDirection,WindDirectionDegrees,WindSpeedMPH,WindSpeedGustMPH,Humidity,HourlyPrecipIn,Conditions,Clouds,dailyrainin,SoftwareType,DateUTC
2013-01-31 00:00:00,54.1,52.7,28.17,West,274,11.0,12.0,95,0.04,,,0.01,Wunderground v.1.15,2013-01-31 05:00:00,
2013-01-31 00:09:00,54.1,52.7,28.17,West,261,10.0,10.0,95,0.04,,,0.01,Wunderground v.1.15,2013-01-31 05:09:00,
2013-01-31 00:14:00,54.2,52.8,28.17,WSW,245,8.0,14.0,95,0.04,,,0.01,Wunderground v.1.15,2013-01-31 05:14:00,
2013-01-31 00:20:00,54.3,52.9,28.17,West,274,6.0,6.0,95,0.00,,,0.02,Wunderground v.1.15,2013-01-31 05:20:00,
2013-01-31 00:25:00,54.2,52.8,28.21,NNW,348,5.0,12.0,95,1.21,,,0.06,Wunderground v.1.15,2013-01-31 05:25:00,
2013-01-31 00:30:00,53.0,51.0,28.20,WNW,293,7.0,7.0,93,0.26,,,0.08,Wunderground v.1.15,2013-01-31 05:30:00,
2013-01-31 00:35:00,51.9,49.9,28.20,WNW,296,7.0,8.0,93,0.12,,,0.09,Wunderground v.1.15,2013-01-31 05:35:00,
2013-01-31 00:40:00,51.1,49.1,28.20,WNW,296,8.0,8.0,93,0.08,,,0.09,Wunderground v.1.15,2013-01-31 05:40:00,
2013-01-31 00:49:00,50.2,48.3,28.22,NW,309,8.0,10.0,93,0.06,,,0.10,Wunderground v.1.15,2013-01-31 05:49:00,
2013-01-31 00:55:00,49.6,47.4,28.22,West,267,9.0,10.0,92,0.04,,,0.10,Wunderground v.1.15,2013-01-31 05:55:00,
2013-01-31 01:00:00,49.0,46.8,28.23,NNW,331,9.0,9.0,92,0.00,,,0.10,Wunderground v.1.15,2013-01-31 06:00:00,
2013-01-31 01:05:00,48.3,45.8,28.22,NNW,340,9.0,12.0,91,0.00,,,0.10,Wunderground v.1.15,2013-01-31 06:05:00,
2013-01-31 01:14:00,46.7,44.2,28.21,WNW,284,8.0,21.0,91,0.00,,,0.10,Wunderground v.1.15,2013-01-31 06:14:00,
2013-01-31 01:19:00,45.6,43.1,28.21,WNW,284,8.0,21.0,91,0.00,,,0.11,Wunderground v.1.15,2013-01-31 06:19:00,
2013-01-31 01:25:00,44.6,42.4,28.21,NW,307,8.0,21.0,92,0.00,,,0.11,Wunderground v.1.15,2013-01-31 06:25:00,
2013-01-31 01:30:00,44.0,41.8,28.21,WNW,302,8.0,21.0,92,0.00,,,0.11,Wunderground v.1.15,2013-01-31 06:30:00,
2013-01-31 01:35:00,43.3,41.4,28.21,North,360,8.0,21.0,93,0.00,,,0.11,Wunderground v.1.15,2013-01-31 06:35:00,
2013-01-31 01:40:00,42.8,40.9,28.23,WNW,289,8.0,8.0,93,0.00,,,0.11,Wunderground v.1.15,2013-01-31 06:40:00,
2013-01-31 01:45:00,42.4,40.5,28.23,NW,316,8.0,21.0,93,0.00,,,0.11,Wunderground v.1.15,2013-01-31 06:45:00,
2013-01-31 01:50:00,42.0,40.1,28.23,WNW,288,8.0,21.0,93,0.00,,,0.11,Wunderground v.1.15,2013-01-31 06:50:00,
2013-01-31 02:00:00,41.2,39.3,28.24,West,259,9.0,9.0,93,0.00,,,0.11,Wunderground v.1.15,2013-01-31 07:00:00,
2013-01-31 02:05:00,40.7,38.8,28.25,North,355,9.0,21.0,93,0.00,,,0.11,Wunderground v.1.15,2013-01-31 07:05:00,
2013-01-31 02:10:00,40.2,38.3,28.22,West,269,10.0,10.0,93,0.00,,,0.11,Wunderground v.1.15,2013-01-31 07:10:00,
2013-01-31 02:15:00,39.8,37.9,28.21,NW,306,10.0,21.0,93,0.00,,,0.11,Wunderground v.1.15,2013-01-31 07:15:00,
2013-01-31 02:20:00,39.5,37.6,28.21,NW,315,9.0,21.0,93,0.00,,,0.11,Wunderground v.1.15,2013-01-31 07:20:00,
2013-01-31 02:25:00,39.2,37.3,28.24,NNW,327,9.0,21.0,93,0.00,,,0.11,Wunderground v.1.15,2013-01-31 07:25:00,
2013-01-31 02:34:00,38.7,36.9,28.25,WNW,292,9.0,21.0,93,0.00,,,0.11,Wunderground v.1.15,2013-01-31 07:34:00,
2013-01-31 02:39:00,38.5,36.7,28.23,WNW,292,10.0,10.0,93,0.00,,,0.11,Wunderground v.1.15,2013-01-31 07:39:00,
2013-01-31 02:44:00,38.3,36.5,28.23,West,270,9.0,12.0,93,0.00,,,0.11,Wunderground v.1.15,2013-01-31 07:44:00,
2013-01-31 02:49:00,38.1,36.3,28.25,NW,313,10.0,21.0,93,0.00,,,0.11,Wunderground v.1.15,2013-01-31 07:49:00,
2013-01-31 02:54:00,38.0,36.2,28.25,WNW,284,11.0,21.0,93,0.00,,,0.11,Wunderground v.1.15,2013-01-31 07:54:00,
2013-01-31 03:04:00,37.7,35.6,28.24,WNW,292,10.0,21.0,92,0.00,,,0.11,Wunderground v.1.15,2013-01-31 08:04:00,
2013-01-31 03:09:00,37.5,35.4,28.25,NW,308,11.0,11.0,92,0.00,,,0.11,Wunderground v.1.15,2013-01-31 08:09:00,
2013-01-31 03:14:00,37.3,35.2,28.25,WNW,289,10.0,15.0,92,0.00,,,0.12,Wunderground v.1.15,2013-01-31 08:14:00,
2013-01-31 03:19:00,36.9,34.8,28.25,NW,304,10.0,21.0,92,0.00,,,0.12,Wunderground v.1.15,2013-01-31 08:19:00,
2013-01-31 03:24:00,36.7,34.9,28.24,WNW,299,10.0,21.0,93,0.00,,,0.12,Wunderground v.1.15,2013-01-31 08:24:00,
2013-01-31 03:29:00,36.6,34.8,28.23,WNW,286,11.0,11.0,93,0.00,,,0.12,Wunderground v.1.15,2013-01-31 08:29:00,
2013-01-31 03:39:00,36.4,34.6,28.24,West,281,9.0,9.0,93,0.00,,,0.12,Wunderground v.1.15,2013-01-31 08:39:00,
2013-01-31 03:44:00,36.3,34.5,28.24,NW,309,9.0,21.0,93,0.00,,,0.12,Wunderground v.1.15,2013-01-31 08:44:00,
2013-01-31 03:49:00,36.2,34.6,28.26,NW,306,8.0,21.0,94,0.00,,,0.12,Wunderground v.1.15,2013-01-31 08:49:00,
2013-01-31 03:54:00,36.1,34.5,28.26,NW,324,8.0,21.0,94,0.00,,,0.12,Wunderground v.1.15,2013-01-31 08:54:00,
2013-01-31 03:59:00,36.0,34.4,28.26,NW,305,9.0,21.0,94,0.00,,,0.12,Wunderground v.1.15,2013-01-31 08:59:00,
2013-01-31 04:09:00,35.8,34.2,28.25,NW,318,8.0,8.0,94,0.00,,,0.13,Wunderground v.1.15,2013-01-31 09:09:00,
2013-01-31 04:15:00,35.6,34.0,28.25,West,273,8.0,21.0,94,0.00,,,0.13,Wunderground v.1.15,2013-01-31 09:15:00,
2013-01-31 04:24:00,35.7,34.1,28.26,NNW,336,8.0,21.0,94,0.00,,,0.14,Wunderground v.1.15,2013-01-31 09:24:00,
2013-01-31 04:29:00,35.7,34.4,28.27,WNW,290,7.0,7.0,95,0.00,,,0.14,Wunderground v.1.15,2013-01-31 09:29:00,
2013-01-31 04:34:00,35.9,34.6,28.27,NW,306,7.0,21.0,95,0.00,,,0.14,Wunderground v.1.15,2013-01-31 09:34:00,
2013-01-31 04:44:00,36.1,34.8,28.28,NNW,329,7.0,21.0,95,0.00,,,0.14,Wunderground v.1.15,2013-01-31 09:44:00,
2013-01-31 04:49:00,35.9,34.6,28.28,WNW,301,7.0,7.0,95,0.00,,,0.14,Wunderground v.1.15,2013-01-31 09:49:00,
2013-01-31 04:54:00,35.9,34.6,28.28,WNW,285,7.0,21.0,95,0.00,,,0.14,Wunderground v.1.15,2013-01-31 09:54:00,
2013-01-31 04:59:00,35.6,34.3,28.30,NNE,28,9.0,21.0,95,0.00,,,0.14,Wunderground v.1.15,2013-01-31 09:59:00,
2013-01-31 05:04:00,34.7,33.2,28.30,NNW,328,13.0,21.0,94,0.00,,,0.14,Wunderground v.1.15,2013-01-31 10:04:00,
2013-01-31 05:09:00,34.3,32.8,28.31,NW,319,16.0,16.0,94,0.00,,,0.15,Wunderground v.1.15,2013-01-31 10:09:00,
2013-01-31 05:15:00,34.1,32.6,28.32,North,355,15.0,21.0,94,0.00,,,0.15,Wunderground v.1.15,2013-01-31 10:15:00,
2013-01-31 05:20:00,34.1,32.8,28.32,NNW,335,13.0,21.0,95,0.00,,,0.15,Wunderground v.1.15,2013-01-31 10:20:00,
2013-01-31 05:25:00,34.1,32.8,28.32,NNW,346,11.0,21.0,95,0.00,,,0.15,Wunderground v.1.15,2013-01-31 10:25:00,
2013-01-31 05:30:00,34.1,32.8,28.32,NNW,338,10.0,21.0,95,0.00,,,0.15,Wunderground v.1.15,2013-01-31 10:30:00,
2013-01-31 05:35:00,33.8,32.5,28.33,North,360,12.0,21.0,95,0.00,,,0.15,Wunderground v.1.15,2013-01-31 10:35:00,
2013-01-31 05:45:00,33.7,32.4,28.33,West,259,10.0,21.0,95,0.00,,,0.15,Wunderground v.1.15,2013-01-31 10:45:00,
2013-01-31 05:50:00,33.7,32.2,28.33,NNW,344,11.0,11.0,94,0.00,,,0.15,Wunderground v.1.15,2013-01-31 10:50:00,
2013-01-31 05:55:00,33.7,32.2,28.34,West,276,12.0,12.0,94,0.00,,,0.15,Wunderground v.1.15,2013-01-31 10:55:00,
2013-01-31 06:00:00,33.7,32.2,28.34,North,355,13.0,21.0,94,0.00,,,0.15,Wunderground v.1.15,2013-01-31 11:00:00,
2013-01-31 06:05:00,33.5,31.7,28.34,North,360,13.0,21.0,93,0.00,,,0.15,Wunderground v.1.15,2013-01-31 11:05:00,
2013-01-31 06:10:00,33.2,31.4,28.35,NW,320,13.0,13.0,93,0.00,,,0.15,Wunderground v.1.15,2013-01-31 11:10:00,
2013-01-31 06:19:00,32.8,31.0,28.36,WNW,301,12.0,21.0,93,0.00,,,0.15,Wunderground v.1.15,2013-01-31 11:19:00,
2013-01-31 06:24:00,32.5,31.0,28.37,NNW,346,12.0,21.0,94,0.00,,,0.15,Wunderground v.1.15,2013-01-31 11:24:00,
2013-01-31 06:29:00,32.2,30.7,28.36,NNW,339,12.0,21.0,94,0.00,,,0.15,Wunderground v.1.15,2013-01-31 11:29:00,
2013-01-31 06:34:00,31.9,30.4,28.37,NNW,348,10.0,21.0,94,0.00,,,0.15,Wunderground v.1.15,2013-01-31 11:34:00,
2013-01-31 06:39:00,31.7,30.2,28.38,NNW,346,9.0,9.0,94,0.00,,,0.15,Wunderground v.1.15,2013-01-31 11:39:00,
2013-01-31 06:44:00,31.6,30.3,28.38,NNW,331,9.0,13.0,95,0.00,,,0.15,Wunderground v.1.15,2013-01-31 11:44:00,
2013-01-31 06:54:00,31.2,29.7,28.39,NNW,348,10.0,10.0,94,0.00,,,0.15,Wunderground v.1.15,2013-01-31 11:54:00,
2013-01-31 06:59:00,31.1,29.6,28.40,NW,321,11.0,21.0,94,0.00,,,0.15,Wunderground v.1.15,2013-01-31 11:59:00,
2013-01-31 07:04:00,30.9,28.9,28.41,WNW,298,13.0,21.0,92,0.00,,,0.15,Wunderground v.1.15,2013-01-31 12:04:00,
2013-01-31 07:09:00,30.8,28.2,28.41,NNW,342,14.0,21.0,90,0.00,,,0.15,Wunderground v.1.15,2013-01-31 12:09:00,
2013-01-31 07:14:00,30.8,27.9,28.42,NW,313,13.0,21.0,89,0.00,,,0.15,Wunderground v.1.15,2013-01-31 12:14:00,
2013-01-31 07:24:00,30.5,26.8,28.44,NNW,331,13.0,21.0,86,0.00,,,0.15,Wunderground v.1.15,2013-01-31 12:24:00,
2013-01-31 07:29:00,30.4,26.7,28.44,NNW,338,13.0,13.0,86,0.00,,,0.15,Wunderground v.1.15,2013-01-31 12:29:00,
2013-01-31 07:34:00,30.0,26.0,28.45,NNW,340,13.0,14.0,85,0.00,,,0.15,Wunderground v.1.15,2013-01-31 12:34:00,
2013-01-31 07:39:00,29.8,25.3,28.45,North,350,15.0,28.0,83,0.00,,,0.15,Wunderground v.1.15,2013-01-31 12:39:00,
2013-01-31 07:44:00,29.6,24.8,28.45,NNW,340,19.0,28.0,82,0.00,,,0.15,Wunderground v.1.15,2013-01-31 12:44:00,
2013-01-31 07:49:00,29.6,24.8,28.45,NNW,332,18.0,18.0,82,0.00,,,0.15,Wunderground v.1.15,2013-01-31 12:49:00,
2013-01-31 07:59:00,29.6,24.8,28.47,North,360,15.0,22.0,82,0.00,,,0.15,Wunderground v.1.15,2013-01-31 12:59:00,
2013-01-31 08:04:00,29.6,24.5,28.47,NW,323,15.0,22.0,81,0.00,,,0.15,Wunderground v.1.15,2013-01-31 13:04:00,
2013-01-31 08:09:00,29.4,24.0,28.48,NNE,19,15.0,15.0,80,0.00,,,0.15,Wunderground v.1.15,2013-01-31 13:09:00,
2013-01-31 08:14:00,29.3,23.6,28.48,WNW,284,14.0,21.0,79,0.00,,,0.15,Wunderground v.1.15,2013-01-31 13:14:00,
2013-01-31 08:19:00,29.2,23.5,28.49,WNW,293,12.0,21.0,79,0.00,,,0.15,Wunderground v.1.15,2013-01-31 13:19:00,
2013-01-31 08:29:00,28.7,23.6,28.50,NW,319,15.0,15.0,81,0.00,,,0.15,Wunderground v.1.15,2013-01-31 13:29:00,
2013-01-31 08:34:00,28.7,23.3,28.50,NNW,334,15.0,21.0,80,0.00,,,0.15,Wunderground v.1.15,2013-01-31 13:34:00,
2013-01-31 08:39:00,28.7,23.3,28.50,NNW,344,16.0,21.0,80,0.00,,,0.15,Wunderground v.1.15,2013-01-31 13:39:00,
2013-01-31 08:44:00,28.7,23.3,28.50,West,278,15.0,21.0,80,0.00,,,0.15,Wunderground v.1.15,2013-01-31 13:44:00,
2013-01-31 08:49:00,28.6,23.5,28.51,WNW,294,14.0,14.0,81,0.00,,,0.15,Wunderground v.1.15,2013-01-31 13:49:00,
2013-01-31 08:54:00,28.5,24.0,28.52,NNW,327,12.0,21.0,83,0.00,,,0.15,Wunderground v.1.15,2013-01-31 13:54:00,
2013-01-31 09:00:00,28.2,24.6,28.52,NNE,16,11.0,11.0,86,0.00,,,0.15,Wunderground v.1.15,2013-01-31 14:00:00,
2013-01-31 09:05:00,27.9,24.5,28.52,West,270,11.0,21.0,87,0.00,,,0.15,Wunderground v.1.15,2013-01-31 14:05:00,
2013-01-31 09:10:00,27.8,24.4,28.52,NW,319,10.0,21.0,87,0.00,,,0.15,Wunderground v.1.15,2013-01-31 14:10:00,
2013-01-31 09:15:00,27.8,24.2,28.52,NW,322,10.0,21.0,86,0.00,,,0.15,Wunderground v.1.15,2013-01-31 14:15:00,
2013-01-31 09:20:00,28.0,23.8,28.52,NW,315,11.0,21.0,84,0.00,,,0.15,Wunderground v.1.15,2013-01-31 14:20:00,
2013-01-31 09:25:00,28.3,23.5,28.53,NNE,19,12.0,21.0,82,0.00,,,0.15,Wunderground v.1.15,2013-01-31 14:25:00,
2013-01-31 09:34:00,28.6,22.9,28.53,WNW,301,13.0,21.0,79,0.00,,,0.15,Wunderground v.1.15,2013-01-31 14:34:00,
2013-01-31 09:39:00,28.7,23.0,28.53,WNW,294,12.0,21.0,79,0.00,,,0.15,Wunderground v.1.15,2013-01-31 14:39:00,
2013-01-31 09:44:00,28.6,22.9,28.54,NNW,338,12.0,21.0,79,0.00,,,0.15,Wunderground v.1.15,2013-01-31 14:44:00,
2013-01-31 09:49:00,28.7,23.0,28.54,NNW,329,13.0,24.0,79,0.00,,,0.15,Wunderground v.1.15,2013-01-31 14:49:00,
2013-01-31 09:54:00,28.5,23.1,28.55,NW,306,15.0,24.0,80,0.00,,,0.15,Wunderground v.1.15,2013-01-31 14:54:00,
2013-01-31 10:04:00,28.3,23.8,28.55,West,267,11.0,21.0,83,0.00,,,0.15,Wunderground v.1.15,2013-01-31 15:04:00,
2013-01-31 10:09:00,27.9,24.0,28.56,NW,309,12.0,12.0,85,0.00,,,0.15,Wunderground v.1.15,2013-01-31 15:09:00,
2013-01-31 10:14:00,27.6,24.0,28.56,North,350,12.0,21.0,86,0.00,,,0.15,Wunderground v.1.15,2013-01-31 15:14:00,
2013-01-31 10:19:00,27.6,24.0,28.56,North,5,11.0,11.0,86,0.00,,,0.15,Wunderground v.1.15,2013-01-31 15:19:00,
2013-01-31 10:24:00,27.6,24.0,28.56,NW,324,12.0,12.0,86,0.00,,,0.15,Wunderground v.1.15,2013-01-31 15:24:00,
2013-01-31 10:29:00,27.9,23.4,28.56,NW,323,13.0,13.0,83,0.00,,,0.15,Wunderground v.1.15,2013-01-31 15:29:00,
2013-01-31 10:39:00,28.2,23.1,28.56,WNW,301,12.0,12.0,81,0.00,,,0.15,Wunderground v.1.15,2013-01-31 15:39:00,
2013-01-31 10:44:00,28.3,22.9,28.57,North,5,12.0,18.0,80,0.00,,,0.15,Wunderground v.1.15,2013-01-31 15:44:00,
2013-01-31 10:49:00,28.5,23.1,28.57,West,273,13.0,21.0,80,0.00,,,0.15,Wunderground v.1.15,2013-01-31 15:49:00,
2013-01-31 10:54:00,28.5,23.4,28.57,NNE,24,14.0,21.0,81,0.00,,,0.15,Wunderground v.1.15,2013-01-31 15:54:00,
2013-01-31 10:59:00,27.9,23.4,28.57,NNE,17,15.0,21.0,83,0.00,,,0.15,Wunderground v.1.15,2013-01-31 15:59:00,
2013-01-31 11:09:00,27.3,23.9,28.57,NNW,347,16.0,16.0,87,0.00,,,0.15,Wunderground v.1.15,2013-01-31 16:09:00,
2013-01-31 11:14:00,27.3,23.7,28.58,North,350,15.0,24.0,86,0.00,,,0.15,Wunderground v.1.15,2013-01-31 16:14:00,
2013-01-31 11:19:00,27.0,22.5,28.57,North,5,17.0,17.0,83,0.00,,,0.15,Wunderground v.1.15,2013-01-31 16:19:00,
2013-01-31 11:24:00,27.1,22.0,28.57,NNW,344,17.0,19.0,81,0.00,,,0.15,Wunderground v.1.15,2013-01-31 16:24:00,
2013-01-31 11:29:00,27.9,22.5,28.58,North,5,16.0,16.0,80,0.00,,,0.15,Wunderground v.1.15,2013-01-31 16:29:00,
2013-01-31 11:34:00,28.8,22.8,28.57,NNE,13,15.0,21.0,78,0.00,,,0.15,Wunderground v.1.15,2013-01-31 16:34:00,
2013-01-31 11:44:00,28.9,21.7,28.58,NNW,341,15.0,29.0,74,0.00,,,0.15,Wunderground v.1.15,2013-01-31 16:44:00,
2013-01-31 11:49:00,29.0,22.1,28.58,WSW,238,14.0,14.0,75,0.00,,,0.15,Wunderground v.1.15,2013-01-31 16:49:00,
2013-01-31 11:54:00,28.9,21.3,28.58,North,355,14.0,16.0,73,0.00,,,0.15,Wunderground v.1.15,2013-01-31 16:54:00,
2013-01-31 11:59:00,28.5,21.6,28.59,NW,305,13.0,21.0,75,0.00,,,0.15,Wunderground v.1.15,2013-01-31 16:59:00,
2013-01-31 12:04:00,28.1,22.1,28.59,North,349,11.0,22.0,78,0.00,,,0.15,Wunderground v.1.15,2013-01-31 17:04:00,
2013-01-31 12:10:00,27.8,22.7,28.60,North,360,11.0,21.0,81,0.00,,,0.15,Wunderground v.1.15,2013-01-31 17:10:00,
2013-01-31 12:19:00,27.4,22.3,28.61,North,355,14.0,27.0,81,0.00,,,0.15,Wunderground v.1.15,2013-01-31 17:19:00,
2013-01-31 12:24:00,27.3,21.9,28.60,NNE,12,17.0,27.0,80,0.00,,,0.15,Wunderground v.1.15,2013-01-31 17:24:00,
2013-01-31 12:29:00,27.3,21.9,28.60,NNW,342,16.0,16.0,80,0.00,,,0.15,Wunderground v.1.15,2013-01-31 17:29:00,
2013-01-31 12:34:00,27.6,22.2,28.61,NW,314,13.0,21.0,80,0.00,,,0.15,Wunderground v.1.15,2013-01-31 17:34:00,
2013-01-31 12:39:00,27.9,22.5,28.62,NW,310,12.0,12.0,80,0.00,,,0.15,Wunderground v.1.15,2013-01-31 17:39:00,
2013-01-31 12:45:00,27.9,21.9,28.61,NNW,345,11.0,17.0,78,0.00,,,0.15,Wunderground v.1.15,2013-01-31 17:45:00,
2013-01-31 12:50:00,27.8,21.8,28.62,North,355,13.0,36.0,78,0.00,,,0.15,Wunderground v.1.15,2013-01-31 17:50:00,
2013-01-31 12:55:00,27.9,21.3,28.62,North,5,16.0,36.0,76,0.00,,,0.15,Wunderground v.1.15,2013-01-31 17:55:00,
2013-01-31 13:00:00,28.1,20.2,28.62,WNW,285,17.0,21.0,72,0.00,,,0.15,Wunderground v.1.15,2013-01-31 18:00:00,
2013-01-31 13:05:00,28.2,20.0,28.62,NNW,346,16.0,21.0,71,0.00,,,0.15,Wunderground v.1.15,2013-01-31 18:05:00,
2013-01-31 13:10:00,28.3,19.8,28.63,North,355,14.0,14.0,70,0.00,,,0.15,Wunderground v.1.15,2013-01-31 18:10:00,
2013-01-31 13:20:00,28.2,19.3,28.63,WNW,298,13.0,13.0,69,0.00,,,0.15,Wunderground v.1.15,2013-01-31 18:20:00,
2013-01-31 13:25:00,28.3,19.1,28.63,WNW,298,12.0,15.0,68,0.00,,,0.15,Wunderground v.1.15,2013-01-31 18:25:00,
2013-01-31 13:30:00,28.4,19.5,28.63,North,5,11.0,21.0,69,0.00,,,0.15,Wunderground v.1.15,2013-01-31 18:30:00,
2013-01-31 13:35:00,28.2,19.7,28.63,WNW,302,13.0,21.0,70,0.00,,,0.15,Wunderground v.1.15,2013-01-31 18:35:00,
2013-01-31 13:40:00,28.1,19.9,28.64,NW,313,14.0,21.0,71,0.00,,,0.15,Wunderground v.1.15,2013-01-31 18:40:00,
2013-01-31 13:49:00,28.7,19.8,28.64,NNW,338,14.0,14.0,69,0.00,,,0.15,Wunderground v.1.15,2013-01-31 18:49:00,
2013-01-31 13:54:00,28.7,18.8,28.64,NNW,348,16.0,23.0,66,0.00,,,0.15,Wunderground v.1.15,2013-01-31 18:54:00,
2013-01-31 13:59:00,28.3,17.7,28.64,North,355,19.0,19.0,64,0.00,,,0.15,Wunderground v.1.15,2013-01-31 18:59:00,
2013-01-31 14:04:00,28.0,17.7,28.65,North,349,19.0,21.0,65,0.00,,,0.15,Wunderground v.1.15,2013-01-31 19:04:00,
2013-01-31 14:09:00,28.0,18.5,28.65,NNW,330,16.0,21.0,67,0.00,,,0.15,Wunderground v.1.15,2013-01-31 19:09:00,
2013-01-31 14:14:00,28.0,18.1,28.65,NW,319,16.0,21.0,66,0.00,,,0.15,Wunderground v.1.15,2013-01-31 19:14:00,
2013-01-31 14:24:00,27.6,18.1,28.66,NW,317,16.0,21.0,67,0.00,,,0.15,Wunderground v.1.15,2013-01-31 19:24:00,
2013-01-31 14:29:00,27.5,18.0,28.67,NNW,342,15.0,21.0,67,0.00,,,0.15,Wunderground v.1.15,2013-01-31 19:29:00,
2013-01-31 14:34:00,27.4,17.5,28.67,North,10,16.0,21.0,66,0.00,,,0.15,Wunderground v.1.15,2013-01-31 19:34:00,
2013-01-31 14:39:00,27.3,17.1,28.67,NNE,17,18.0,18.0,65,0.00,,,0.15,Wunderground v.1.15,2013-01-31 19:39:00,
2013-01-31 14:44:00,27.3,17.4,28.67,North,355,18.0,21.0,66,0.00,,,0.15,Wunderground v.1.15,2013-01-31 19:44:00,
2013-01-31 14:54:00,27.6,17.7,28.68,North,5,11.0,21.0,66,0.00,,,0.15,Wunderground v.1.15,2013-01-31 19:54:00,
2013-01-31 14:59:00,27.7,17.1,28.68,North,360,12.0,21.0,64,0.00,,,0.15,Wunderground v.1.15,2013-01-31 19:59:00,
2013-01-31 15:04:00,27.7,16.7,28.68,North,350,16.0,21.0,63,0.00,,,0.15,Wunderground v.1.15,2013-01-31 20:04:00,
2013-01-31 15:09:00,27.8,16.8,28.69,NNW,335,16.0,21.0,63,0.00,,,0.15,Wunderground v.1.15,2013-01-31 20:09:00,
2013-01-31 15:14:00,27.8,16.8,28.69,North,355,15.0,21.0,63,0.00,,,0.15,Wunderground v.1.15,2013-01-31 20:14:00,
2013-01-31 15:19:00,27.7,16.4,28.70,WNW,294,16.0,16.0,62,0.00,,,0.15,Wunderground v.1.15,2013-01-31 20:19:00,
2013-01-31 15:29:00,27.5,17.3,28.70,NW,315,16.0,16.0,65,0.00,,,0.15,Wunderground v.1.15,2013-01-31 20:29:00,
2013-01-31 15:34:00,27.5,16.9,28.70,NNW,340,14.0,25.0,64,0.00,,,0.15,Wunderground v.1.15,2013-01-31 20:34:00,
2013-01-31 15:39:00,27.5,16.5,28.70,NNW,333,14.0,14.0,63,0.00,,,0.15,Wunderground v.1.15,2013-01-31 20:39:00,
2013-01-31 15:44:00,27.5,16.9,28.71,North,355,14.0,21.0,64,0.00,,,0.15,Wunderground v.1.15,2013-01-31 20:44:00,
2013-01-31 15:49:00,27.6,17.0,28.71,North,355,14.0,21.0,64,0.00,,,0.15,Wunderground v.1.15,2013-01-31 20:49:00,
2013-01-31 15:59:00,27.3,16.0,28.71,North,5,18.0,18.0,62,0.00,,,0.15,Wunderground v.1.15,2013-01-31 20:59:00,
2013-01-31 16:04:00,27.2,16.6,28.71,NNW,340,16.0,19.0,64,0.00,,,0.15,Wunderground v.1.15,2013-01-31 21:04:00,
2013-01-31 16:09:00,27.2,17.0,28.72,North,5,13.0,21.0,65,0.00,,,0.15,Wunderground v.1.15,2013-01-31 21:09:00,
2013-01-31 16:14:00,27.1,16.9,28.72,North,9,14.0,21.0,65,0.00,,,0.15,Wunderground v.1.15,2013-01-31 21:14:00,
2013-01-31 16:19:00,27.0,17.5,28.73,NNW,340,14.0,21.0,67,0.00,,,0.15,Wunderground v.1.15,2013-01-31 21:19:00,
2013-01-31 16:24:00,26.9,17.7,28.73,NNE,17,13.0,21.0,68,0.00,,,0.15,Wunderground v.1.15,2013-01-31 21:24:00,
2013-01-31 16:30:00,26.7,16.9,28.74,North,5,14.0,14.0,66,0.00,,,0.15,Wunderground v.1.15,2013-01-31 21:30:00,
2013-01-31 16:35:00,26.7,16.1,28.73,North,360,15.0,20.0,64,0.00,,,0.15,Wunderground v.1.15,2013-01-31 21:35:00,
2013-01-31 16:40:00,26.6,16.4,28.74,North,350,15.0,15.0,65,0.00,,,0.15,Wunderground v.1.15,2013-01-31 21:40:00,
2013-01-31 16:45:00,26.5,16.7,28.74,NNE,17,14.0,21.0,66,0.00,,,0.15,Wunderground v.1.15,2013-01-31 21:45:00,
2013-01-31 16:50:00,26.5,16.7,28.74,North,349,14.0,21.0,66,0.00,,,0.15,Wunderground v.1.15,2013-01-31 21:50:00,
2013-01-31 16:59:00,26.6,16.4,28.74,NNE,22,13.0,21.0,65,0.00,,,0.15,Wunderground v.1.15,2013-01-31 21:59:00,
2013-01-31 17:04:00,26.6,16.4,28.75,North,355,14.0,21.0,65,0.00,,,0.15,Wunderground v.1.15,2013-01-31 22:04:00,
2013-01-31 17:09:00,26.6,16.4,28.75,North,5,14.0,14.0,65,0.00,,,0.15,Wunderground v.1.15,2013-01-31 22:09:00,
2013-01-31 17:14:00,26.6,17.1,28.76,NW,321,12.0,21.0,67,0.00,,,0.15,Wunderground v.1.15,2013-01-31 22:14:00,
2013-01-31 17:19:00,26.6,17.5,28.76,NNE,19,11.0,21.0,68,0.00,,,0.15,Wunderground v.1.15,2013-01-31 22:19:00,
2013-01-31 17:24:00,26.5,17.7,28.76,North,5,11.0,21.0,69,0.00,,,0.15,Wunderground v.1.15,2013-01-31 22:24:00,
2013-01-31 17:34:00,26.2,16.7,28.77,NNE,13,12.0,21.0,67,0.00,,,0.15,Wunderground v.1.15,2013-01-31 22:34:00,
2013-01-31 17:39:00,26.0,15.8,28.77,NNW,343,15.0,21.0,65,0.00,,,0.15,Wunderground v.1.15,2013-01-31 22:39:00,
2013-01-31 17:44:00,25.9,16.1,28.78,NNE,22,16.0,21.0,66,0.00,,,0.15,Wunderground v.1.15,2013-01-31 22:44:00,
2013-01-31 17:49:00,25.8,16.3,28.78,NNW,344,13.0,13.0,67,0.00,,,0.15,Wunderground v.1.15,2013-01-31 22:49:00,
2013-01-31 17:54:00,25.8,16.3,28.78,North,360,12.0,23.0,67,0.00,,,0.15,Wunderground v.1.15,2013-01-31 22:54:00,
2013-01-31 17:59:00,25.9,16.8,28.79,NNE,29,13.0,21.0,68,0.00,,,0.15,Wunderground v.1.15,2013-01-31 22:59:00,
2013-01-31 18:09:00,25.6,16.2,28.79,North,10,14.0,21.0,67,0.00,,,0.15,Wunderground v.1.15,2013-01-31 23:09:00,
2013-01-31 18:14:00,25.4,16.0,28.80,NNE,26,16.0,21.0,67,0.00,,,0.15,Wunderground v.1.15,2013-01-31 23:14:00,
2013-01-31 18:19:00,25.4,16.6,28.80,NNE,31,15.0,15.0,69,0.00,,,0.15,Wunderground v.1.15,2013-01-31 23:19:00,
2013-01-31 18:24:00,25.4,17.0,28.80,NNE,17,11.0,21.0,70,0.00,,,0.15,Wunderground v.1.15,2013-01-31 23:24:00,
2013-01-31 18:29:00,25.0,17.6,28.81,North,360,11.0,11.0,73,0.00,,,0.15,Wunderground v.1.15,2013-01-31 23:29:00,
2013-01-31 18:39:00,25.0,16.9,28.81,NNW,338,12.0,12.0,71,0.00,,,0.15,Wunderground v.1.15,2013-01-31 23:39:00,
2013-01-31 18:44:00,25.0,16.9,28.81,NNW,336,13.0,13.0,71,0.00,,,0.15,Wunderground v.1.15,2013-01-31 23:44:00,
2013-01-31 18:49:00,25.1,17.0,28.81,North,360,11.0,11.0,71,0.00,,,0.15,Wunderground v.1.15,2013-01-31 23:49:00,
2013-01-31 18:54:00,25.1,16.7,28.82,North,349,11.0,13.0,70,0.00,,,0.15,Wunderground v.1.15,2013-01-31 23:54:00,
2013-01-31 18:59:00,25.2,16.8,28.82,North,5,13.0,21.0,70,0.00,,,0.15,Wunderground v.1.15,2013-01-31 23:59:00,
2013-01-31 19:04:00,25.1,16.7,28.82,NNW,344,15.0,21.0,70,0.00,,,0.15,Wunderground v.1.15,2013-02-01 00:04:00,
2013-01-31 19:14:00,25.0,16.9,28.82,North,349,13.0,18.0,71,0.00,,,0.15,Wunderground v.1.15,2013-02-01 00:14:00,
2013-01-31 19:19:00,24.9,16.8,28.82,NNW,340,12.0,21.0,71,0.00,,,0.15,Wunderground v.1.15,2013-02-01 00:19:00,
2013-01-31 19:24:00,24.8,16.7,28.83,North,349,13.0,21.0,71,0.00,,,0.15,Wunderground v.1.15,2013-02-01 00:24:00,
2013-01-31 19:29:00,24.8,17.4,28.83,NNE,16,11.0,11.0,73,0.00,,,0.15,Wunderground v.1.15,2013-02-01 00:29:00,
2013-01-31 19:34:00,24.7,17.3,28.83,North,360,10.0,21.0,73,0.00,,,0.15,Wunderground v.1.15,2013-02-01 00:34:00,
2013-01-31 19:44:00,24.5,18.0,28.83,NNW,344,8.0,21.0,76,0.00,,,0.15,Wunderground v.1.15,2013-02-01 00:44:00,
2013-01-31 19:49:00,24.3,17.8,28.83,WNW,299,9.0,9.0,76,0.00,,,0.15,Wunderground v.1.15,2013-02-01 00:49:00,
2013-01-31 19:54:00,24.1,18.2,28.84,NW,315,10.0,10.0,78,0.00,,,0.15,Wunderground v.1.15,2013-02-01 00:54:00,
2013-01-31 19:59:00,23.8,18.5,28.83,NW,313,9.0,21.0,80,0.00,,,0.15,Wunderground v.1.15,2013-02-01 00:59:00,
2013-01-31 20:04:00,23.7,18.7,28.84,NNW,338,8.0,21.0,81,0.00,,,0.15,Wunderground v.1.15,2013-02-01 01:04:00,
2013-01-31 20:09:00,23.7,18.7,28.84,North,349,8.0,21.0,81,0.00,,,0.15,Wunderground v.1.15,2013-02-01 01:09:00,
2013-01-31 20:15:00,23.7,19.0,28.84,North,355,8.0,21.0,82,0.00,,,0.15,Wunderground v.1.15,2013-02-01 01:15:00,
2013-01-31 20:24:00,23.8,19.4,28.84,NNW,336,9.0,21.0,83,0.00,,,0.15,Wunderground v.1.15,2013-02-01 01:24:00,
2013-01-31 20:29:00,23.7,19.3,28.84,WNW,299,8.0,21.0,83,0.00,,,0.15,Wunderground v.1.15,2013-02-01 01:29:00,
2013-01-31 20:34:00,23.6,19.2,28.84,WNW,294,7.0,21.0,83,0.00,,,0.15,Wunderground v.1.15,2013-02-01 01:34:00,
2013-01-31 20:39:00,23.5,19.1,28.85,North,11,7.0,7.0,83,0.00,,,0.15,Wunderground v.1.15,2013-02-01 01:39:00,
2013-01-31 20:44:00,23.4,19.3,28.85,NNW,328,7.0,21.0,84,0.00,,,0.15,Wunderground v.1.15,2013-02-01 01:44:00,
2013-01-31 20:49:00,23.4,19.3,28.85,West,269,7.0,7.0,84,0.00,,,0.15,Wunderground v.1.15,2013-02-01 01:49:00,
2013-01-31 20:54:00,23.3,19.2,28.85,North,355,6.0,21.0,84,0.00,,,0.15,Wunderground v.1.15,2013-02-01 01:54:00,
2013-01-31 20:59:00,23.2,19.1,28.85,NW,318,7.0,7.0,84,0.00,,,0.15,Wunderground v.1.15,2013-02-01 01:59:00,
2013-01-31 21:04:00,23.1,19.3,28.86,NNW,331,7.0,21.0,85,0.00,,,0.15,Wunderground v.1.15,2013-02-01 02:04:00,
2013-01-31 21:09:00,23.1,19.3,28.86,NNE,17,7.0,21.0,85,0.00,,,0.15,Wunderground v.1.15,2013-02-01 02:09:00,
2013-01-31 21:19:00,22.7,18.9,28.86,North,360,9.0,21.0,85,0.00,,,0.15,Wunderground v.1.15,2013-02-01 02:19:00,
2013-01-31 21:24:00,22.7,18.6,28.86,NW,308,10.0,21.0,84,0.00,,,0.15,Wunderground v.1.15,2013-02-01 02:24:00,
2013-01-31 21:29:00,22.7,18.6,28.86,North,355,9.0,9.0,84,0.00,,,0.15,Wunderground v.1.15,2013-02-01 02:29:00,
2013-01-31 21:34:00,22.6,18.2,28.86,NNE,22,10.0,10.0,83,0.00,,,0.15,Wunderground v.1.15,2013-02-01 02:34:00,
2013-01-31 21:39:00,22.6,17.9,28.86,North,360,11.0,21.0,82,0.00,,,0.15,Wunderground v.1.15,2013-02-01 02:39:00,
2013-01-31 21:44:00,22.7,17.7,28.86,NW,307,10.0,21.0,81,0.00,,,0.15,Wunderground v.1.15,2013-02-01 02:44:00,
2013-01-31 21:54:00,22.8,18.1,28.87,WNW,284,9.0,21.0,82,0.00,,,0.15,Wunderground v.1.15,2013-02-01 02:54:00,
2013-01-31 21:59:00,22.9,18.2,28.87,WNW,286,9.0,9.0,82,0.00,,,0.15,Wunderground v.1.15,2013-02-01 02:59:00,
2013-01-31 22:04:00,22.9,18.2,28.87,NW,324,9.0,12.0,82,0.00,,,0.15,Wunderground v.1.15,2013-02-01 03:04:00,
2013-01-31 22:09:00,22.9,17.9,28.87,NW,325,10.0,21.0,81,0.00,,,0.15,Wunderground v.1.15,2013-02-01 03:09:00,
2013-01-31 22:14:00,23.0,19.4,28.87,NNW,332,11.0,21.0,86,0.00,,,0.15,Wunderground v.1.15,2013-02-01 03:14:00,
2013-01-31 22:24:00,23.1,17.6,28.88,North,355,10.0,21.0,79,0.00,,,0.15,Wunderground v.1.15,2013-02-01 03:24:00,
2013-01-31 22:29:00,23.0,17.5,28.87,NNW,333,10.0,21.0,79,0.00,,,0.15,Wunderground v.1.15,2013-02-01 03:29:00,
2013-01-31 22:34:00,23.0,17.2,28.88,North,355,10.0,21.0,78,0.00,,,0.15,Wunderground v.1.15,2013-02-01 03:34:00,
2013-01-31 22:39:00,23.0,17.5,28.88,North,360,10.0,21.0,79,0.00,,,0.15,Wunderground v.1.15,2013-02-01 03:39:00,
2013-01-31 22:44:00,22.9,17.1,28.87,NNW,343,10.0,21.0,78,0.00,,,0.15,Wunderground v.1.15,2013-02-01 03:44:00,
2013-01-31 22:49:00,22.9,16.8,28.88,NNE,16,11.0,11.0,77,0.00,,,0.15,Wunderground v.1.15,2013-02-01 03:49:00,
2013-01-31 22:59:00,22.9,17.1,28.88,NNW,339,10.0,21.0,78,0.00,,,0.15,Wunderground v.1.15,2013-02-01 03:59:00,
2013-01-31 23:04:00,22.9,17.1,28.88,North,360,10.0,21.0,78,0.00,,,0.15,Wunderground v.1.15,2013-02-01 04:04:00,
2013-01-31 23:09:00,22.9,17.1,28.88,North,355,9.0,21.0,78,0.00,,,0.15,Wunderground v.1.15,2013-02-01 04:09:00,
2013-01-31 23:14:00,22.9,17.1,28.88,NNW,343,9.0,21.0,78,0.00,,,0.15,Wunderground v.1.15,2013-02-01 04:14:00,
2013-01-31 23:19:00,22.9,16.8,28.88,NNW,333,11.0,21.0,77,0.00,,,0.15,Wunderground v.1.15,2013-02-01 04:19:00,
2013-01-31 23:29:00,22.9,16.8,28.88,NE,40,10.0,21.0,77,0.00,,,0.15,Wunderground v.1.15,2013-02-01 04:29:00,
2013-01-31 23:34:00,22.9,16.8,28.89,NNW,335,10.0,21.0,77,0.00,,,0.15,Wunderground v.1.15,2013-02-01 04:34:00,
2013-01-31 23:39:00,22.8,16.7,28.88,WNW,299,10.0,21.0,77,0.00,,,0.15,Wunderground v.1.15,2013-02-01 04:39:00,
2013-01-31 23:44:00,22.8,16.7,28.88,WNW,292,10.0,21.0,77,0.00,,,0.15,Wunderground v.1.15,2013-02-01 04:44:00,
2013-01-31 23:49:00,22.8,16.7,28.89,North,5,9.0,21.0,77,0.00,,,0.15,Wunderground v.1.15,2013-02-01 04:49:00,
2013-01-31 23:54:00,22.8,16.7,28.89,NNW,348,9.0,21.0,77,0.00,,,0.15,Wunderground v.1.15,2013-02-01 04:54:00,